Time;durP1;ratioP1;P1;durP2;ratioP2;P2;SDS_P1;SDS_P2;PMS_P1;PMS_P2;Temp;Humidity;BMP_temperature;BMP_pressure;BME280_temperature;BME280_humidity;BME280_pressure;Samples;Min_cycle;Max_cycle;Signal;HPM_P1;HPM_P2
2022/08/20 00:02:50;;;;;;;;;;;;;;;17.11;100.00;95513.34;10349543;28;2152;-75
2022/08/20 00:07:53;;;;;;;;;;;;;;;16.97;100.00;95518.16;10353423;28;2011;-70
2022/08/20 00:12:57;;;;;;;;;;;;;;;16.93;100.00;95518.03;10348053;28;2226;-70
2022/08/20 00:18:00;;;;;;;;;;;;;;;16.87;100.00;95530.16;10354993;28;2093;-71
2022/08/20 00:23:04;;;;;;;;;;;;;;;16.81;100.00;95523.28;10359805;28;2065;-70
2022/08/20 00:28:12;;;;;;;;;;;;;;;16.81;100.00;95522.50;10354694;28;2071;-70
2022/08/20 00:33:15;;;;;;;;;;;;;;;16.72;100.00;95527.91;10358189;28;1994;-71
2022/08/20 00:38:19;;;;;;;;;;;;;;;16.71;100.00;95537.97;10357146;28;2080;-71
2022/08/20 00:43:22;;;;;;;;;;;;;;;16.70;100.00;95538.28;10353034;28;1966;-73
2022/08/20 00:48:25;;;;;;;;;;;;;;;16.61;100.00;95540.19;10354855;28;2083;-74
2022/08/20 00:53:32;;;;;;;;;;;;;;;16.52;100.00;95534.72;10358410;28;2113;-75
2022/08/20 00:58:36;;;;;;;;;;;;;;;16.52;100.00;95533.91;10356355;28;2410;-66
2022/08/20 01:03:41;;;;;;;;;;;;;;;16.46;100.00;95535.97;10366668;28;2091;-66
2022/08/20 01:08:44;;;;;;;;;;;;;;;16.47;100.00;95543.78;10355477;28;2089;-66
2022/08/20 01:13:47;;;;;;;;;;;;;;;16.40;100.00;95548.09;10352132;28;1997;-66
2022/08/20 01:18:51;;;;;;;;;;;;;;;16.38;100.00;95547.63;10361893;28;2060;-67
2022/08/20 01:23:54;;;;;;;;;;;;;;;16.34;100.00;95549.34;10357617;28;2180;-67
2022/08/20 01:28:58;;;;;;;;;;;;;;;16.33;100.00;95558.63;10351884;28;2002;-68
2022/08/20 01:34:01;;;;;;;;;;;;;;;16.33;100.00;95558.63;10351786;28;2093;-73
2022/08/20 01:39:04;;;;;;;;;;;;;;;16.29;100.00;95558.47;10357004;28;2197;-67
2022/08/20 01:44:08;;;;;;;;;;;;;;;16.27;100.00;95559.88;10355258;28;2033;-67
2022/08/20 01:49:19;;;;;;;;;;;;;;;16.27;100.00;95563.38;10346872;28;2079;-67
2022/08/20 01:54:25;;;;;;;;;;;;;;;16.24;100.00;95560.50;10352879;28;2135;-68
2022/08/20 01:59:29;;;;;;;;;;;;;;;16.26;100.00;95558.28;10362386;28;2143;-68
2022/08/20 02:04:33;;;;;;;;;;;;;;;16.24;100.00;95563.22;10350184;28;1931;-68
2022/08/20 02:09:40;;;;;;;;;;;;;;;16.22;100.00;95568.94;10353399;28;2095;-68
2022/08/20 02:14:44;;;;;;;;;;;;;;;16.19;100.00;95578.53;10354876;28;2063;-67
2022/08/20 02:19:47;;;;;;;;;;;;;;;16.23;100.00;95575.19;10358016;28;2048;-68
2022/08/20 02:24:51;;;;;;;;;;;;;;;16.23;100.00;95577.91;10356905;28;2065;-67
2022/08/20 02:29:54;;;;;;;;;;;;;;;16.23;100.00;95578.69;10354300;28;2068;-67
2022/08/20 02:34:58;;;;;;;;;;;;;;;16.19;100.00;95586.66;10348950;28;2006;-67
2022/08/20 02:40:01;;;;;;;;;;;;;;;16.20;100.00;95579.31;10355015;28;2063;-67
2022/08/20 02:45:05;;;;;;;;;;;;;;;16.17;100.00;95578.03;10358625;28;1981;-69
2022/08/20 02:50:11;;;;;;;;;;;;;;;16.18;100.00;95576.91;10363181;28;2237;-77
2022/08/20 02:55:15;;;;;;;;;;;;;;;16.30;100.00;95583.66;10349648;28;1919;-76
2022/08/20 03:00:30;;;;;;;;;;;17.30;99.90;;;16.39;100.00;95589.91;10346683;28;2034;-70
2022/08/20 03:05:39;;;;;;;;;;;17.20;99.90;;;16.53;100.00;95582.44;10348260;28;2200;-70
2022/08/20 03:10:42;;;;;;;;;;;17.40;99.90;;;16.52;100.00;95583.56;10348346;28;2141;-70
2022/08/20 03:15:45;;;;;;;;;;;17.40;99.90;;;16.54;100.00;95585.94;10349934;28;2037;-70
2022/08/20 03:20:48;;;;;;;;;;;17.40;99.90;;;16.49;100.00;95593.13;10348174;28;2007;-70
2022/08/20 03:25:53;;;;;;;;;;;17.40;99.90;;;16.53;100.00;95595.19;10351549;28;2081;-70
2022/08/20 03:30:58;;;;;;;;;;;17.40;99.90;;;16.50;100.00;95596.66;10345665;28;2044;-73
2022/08/20 03:36:00;;;;;;;;;;;17.40;99.90;;;16.49;100.00;95597.78;10352833;28;2067;-77
2022/08/20 03:41:03;;;;;;;;;;;17.40;99.90;;;16.67;100.00;95595.91;10351509;28;1825;-69
2022/08/20 03:46:06;;;;;;;;;;;17.50;99.90;;;16.53;100.00;95606.84;10356880;28;2145;-68
2022/08/20 03:51:24;;;;;;;;;;;17.50;99.90;;;16.63;100.00;95609.28;10350590;28;2127;-71
2022/08/20 03:56:27;;;;;;;;;;;17.50;99.90;;;16.53;100.00;95617.72;10349478;28;2143;-70
2022/08/20 04:01:30;;;;;;;;;;;17.40;99.90;;;16.72;100.00;95612.84;10354017;28;2002;-71
2022/08/20 04:06:48;;;;;;;;;;;17.40;99.90;;;16.70;100.00;95611.56;10356862;28;1976;-71
2022/08/20 04:11:58;;;;;;;;;;;17.60;99.90;;;16.69;100.00;95604.50;10347113;28;1892;-70
2022/08/20 04:17:01;;;;;;;;;;;17.50;99.90;;;16.80;100.00;95619.41;10350198;28;2061;-72
2022/08/20 04:22:05;;;;;;;;;;;17.70;99.90;;;16.81;100.00;95622.94;10354581;28;2136;-72
2022/08/20 04:27:08;;;;;;;;;;;17.70;99.90;;;16.70;100.00;95625.94;10351159;28;2013;-71
2022/08/20 04:32:11;;;;;;;;;;;17.70;99.90;;;16.77;100.00;95633.59;10351429;28;2069;-70
2022/08/20 04:37:16;;;;;;;;;;;17.70;99.90;;;16.78;100.00;95635.22;10351289;28;1927;-72
2022/08/20 04:42:19;;;;;;;;;;;17.70;99.90;;;16.73;100.00;95641.59;10352652;28;2101;-70
2022/08/20 04:47:22;;;;;;;;;;;17.70;99.90;;;16.91;100.00;95630.75;10349750;28;2092;-70
2022/08/20 04:52:36;;;;;;;;;;;17.80;99.90;;;16.92;100.00;95641.31;10350430;28;1993;-71
2022/08/20 04:57:39;;;;;;;;;;;17.70;99.90;;;16.89;100.00;95646.56;10350177;28;2041;-71
2022/08/20 05:02:42;;;;;;;;;;;17.60;99.90;;;17.03;100.00;95630.94;10350898;28;1997;-71
2022/08/20 05:07:45;;;;;;;;;;;17.90;99.90;;;17.06;100.00;95634.94;10362310;28;1876;-70
2022/08/20 05:12:48;;;;;;;;;;;17.90;99.90;;;16.77;100.00;95640.97;10359791;28;1985;-70
2022/08/20 05:17:59;;;;;;;;;;;17.80;99.90;;;16.54;100.00;95649.19;10362421;28;2029;-68
2022/08/20 05:23:02;;;;;;;;;;;17.60;99.90;;;16.54;100.00;95656.50;10359268;28;2080;-69
2022/08/20 05:28:08;;;;;;;;;;;17.60;99.90;;;16.56;100.00;95665.13;10354651;28;2020;-69
2022/08/20 05:33:12;;;;;;;;;;;17.50;99.90;;;16.80;100.00;95676.44;10354757;28;1940;-71
2022/08/20 05:38:15;;;;;;;;;;;17.50;99.90;;;16.95;100.00;95672.47;10361033;28;2124;-71
2022/08/20 05:43:17;;;;;;;;;;;17.70;99.90;;;17.08;100.00;95676.97;10356407;28;1975;-69
2022/08/20 05:48:20;;;;;;;;;;;17.90;99.90;;;17.06;100.00;95679.19;10358568;28;2094;-69
2022/08/20 05:53:23;;;;;;;;;;;18.00;99.90;;;17.27;100.00;95680.19;10361091;28;2211;-71
2022/08/20 05:58:28;;;;;;;;;;;18.10;99.90;;;17.39;100.00;95681.47;10354220;28;2005;-69
2022/08/20 06:08:52;;;;;;;;;;;18.30;99.90;;;17.49;100.00;95678.41;10348785;28;2057;-70
2022/08/20 06:13:55;;;;;;;;;;;18.40;99.90;;;17.49;100.00;95678.41;10350441;28;2127;-75
2022/08/20 06:18:58;;;;;;;;;;;18.30;99.90;;;17.56;100.00;95687.72;10358846;28;1876;-76
2022/08/20 06:24:04;;;;;;;;;;;18.40;99.90;;;17.80;100.00;95691.88;10355979;28;2103;-71
2022/08/20 06:29:07;;;;;;;;;;;18.60;99.90;;;17.78;100.00;95694.13;10350418;28;2009;-71
2022/08/20 06:34:10;;;;;;;;;;;18.60;99.90;;;17.83;100.00;95694.75;10351986;28;2036;-70
2022/08/20 06:39:13;;;;;;;;;;;18.60;99.90;;;17.83;100.00;95694.75;10352788;28;2014;-69
2022/08/20 06:44:16;;;;;;;;;;;18.60;99.90;;;18.03;100.00;95706.09;10356164;28;2064;-71
2022/08/20 06:49:19;;;;;;;;;;;18.70;99.90;;;17.87;100.00;95696.81;10356420;28;2020;-70
2022/08/20 06:54:21;;;;;;;;;;;18.70;99.90;;;18.15;100.00;95700.00;10352899;28;2152;-69
2022/08/20 06:59:31;;;;;;;;;;;18.80;99.90;;;18.12;100.00;95706.88;10354286;28;2116;-69
2022/08/20 07:04:37;;;;;;;;;;;18.90;99.90;;;17.85;100.00;95709.94;10354083;28;2128;-71
2022/08/20 07:09:39;;;;;;;;;;;18.70;99.90;;;17.75;100.00;95722.75;10355514;28;2005;-70
2022/08/20 07:14:43;;;;;;;;;;;18.70;99.90;;;17.70;100.00;95722.88;10350504;28;2112;-69
2022/08/20 07:19:45;;;;;;;;;;;18.60;99.90;;;17.96;100.00;95722.09;10352863;28;2060;-70
2022/08/20 07:24:48;;;;;;;;;;;18.60;99.90;;;18.00;100.00;95723.03;10356000;28;1910;-70
2022/08/20 07:35:16;;;;;;;;;;;18.70;99.90;;;17.96;100.00;95728.34;10336605;28;2065;-70
2022/08/20 07:40:19;;;;;;;;;;;18.80;99.90;;;17.95;100.00;95731.38;10348603;28;1980;-69
2022/08/20 07:45:27;;;;;;;;;;;19.00;99.90;;;18.03;100.00;95728.66;10352033;28;1996;-69
2022/08/20 07:50:30;;;;;;;;;;;18.70;99.90;;;18.07;100.00;95740.50;10347613;28;2179;-73
2022/08/20 07:55:33;;;;;;;;;;;18.80;99.90;;;18.15;100.00;95736.16;10350787;28;2017;-69
2022/08/20 08:00:36;;;;;;;;;;;18.90;99.90;;;18.57;100.00;95742.59;10349322;28;2116;-69
2022/08/20 08:05:39;;;;;;;;;;;19.10;99.90;;;18.79;100.00;95740.81;10351106;28;1922;-70
2022/08/20 08:10:42;;;;;;;;;;;;;;;19.14;100.00;95739.50;10363589;28;2191;-69
2022/08/20 08:15:45;;;;;;;;;;;;;;;19.34;100.00;95739.88;10352521;28;2049;-69
2022/08/20 08:20:50;;;;;;;;;;;;;;;19.37;100.00;95742.75;10352461;28;2237;-69
2022/08/20 08:25:52;;;;;;;;;;;21.10;99.90;;;18.97;100.00;95738.81;10353955;28;2213;-70
2022/08/20 08:30:55;;;;;;;;;;;19.70;99.90;;;18.62;100.00;95749.81;10358771;28;2291;-70
2022/08/20 08:35:59;;;;;;;;;;;;;;;18.56;100.00;95751.91;10346990;28;2302;-70
2022/08/20 08:41:02;;;;;;;;;;;;;;;18.42;100.00;95766.84;10351573;28;2045;-72
2022/08/20 08:46:07;;;;;;;;;;;;;;;18.25;100.00;95763.00;10358387;28;2171;-71
2022/08/20 08:51:11;;;;;;;;;;;;;;;18.06;100.00;95771.50;10357470;28;1879;-73
2022/08/20 08:56:14;;;;;;;;;;;19.00;99.90;;;17.92;100.00;95783.69;10358950;28;2061;-71
2022/08/20 09:01:17;;;;;;;;;;;18.90;99.90;;;17.89;100.00;95784.34;10357175;28;2041;-69
2022/08/20 09:06:40;;;;;;;;;;;18.90;99.90;;;17.75;100.00;95785.28;10359024;28;2207;-71
2022/08/20 09:11:43;;;;;;;;;;;18.80;99.90;;;17.61;100.00;95789.22;10353686;28;2013;-71
2022/08/20 09:16:46;;;;;;;;;;;18.60;99.90;;;17.38;100.00;95791.28;10356709;28;2132;-69
2022/08/20 09:21:55;;;;;;;;;;;18.40;99.90;;;17.37;100.00;95787.75;10353879;28;2095;-70
2022/08/20 09:26:57;;;;;;;;;;;18.20;99.90;;;17.38;100.00;95791.28;10358224;28;2100;-70
2022/08/20 09:32:00;;;;;;;;;;;18.20;99.90;;;17.47;100.00;95792.09;10353246;28;1900;-71
2022/08/20 09:37:05;;;;;;;;;;;18.20;99.90;;;17.51;100.00;95801.22;10351566;28;2215;-70
2022/08/20 09:42:08;;;;;;;;;;;18.20;99.90;;;17.58;100.00;95801.53;10352988;28;2089;-69
2022/08/20 09:47:11;;;;;;;;;;;18.20;99.90;;;17.66;100.00;95789.88;10352288;28;2017;-69
2022/08/20 09:52:13;;;;;;;;;;;18.40;99.90;;;17.76;100.00;95795.03;10353131;28;2112;-71
2022/08/20 09:57:16;;;;;;;;;;;18.50;99.90;;;17.91;100.00;95790.25;10344214;28;1997;-70
2022/08/20 10:02:19;;;;;;;;;;;18.60;99.90;;;17.85;100.00;95783.38;10349092;28;2057;-71
2022/08/20 10:07:22;;;;;;;;;;;18.60;99.90;;;17.76;100.00;95784.16;10353142;28;2102;-69
2022/08/20 10:12:25;;;;;;;;;;;18.60;99.90;;;17.85;100.00;95786.09;10352696;28;2056;-74
2022/08/20 10:17:28;;;;;;;;;;;18.40;99.90;;;17.86;100.00;95782.25;10352669;28;2012;-71
2022/08/20 10:22:31;;;;;;;;;;;18.50;99.90;;;18.01;100.00;95785.28;10352326;28;2078;-71
2022/08/20 10:27:37;;;;;;;;;;;18.80;99.90;;;18.00;100.00;95788.31;10356543;28;2021;-71
2022/08/20 10:32:41;;;;;;;;;;;18.80;99.90;;;18.12;100.00;95782.22;10346797;28;1887;-71
2022/08/20 10:37:45;;;;;;;;;;;;;;;18.07;100.00;95783.22;10352643;28;2106;-71
2022/08/20 10:42:48;;;;;;;;;;;;;;;18.14;100.00;95778.09;10357058;28;2068;-71
2022/08/20 10:47:51;;;;;;;;;;;;;;;18.23;100.00;95781.59;10350531;28;2135;-71
2022/08/20 10:52:55;;;;;;;;;;;;;;;18.45;100.00;95782.50;10353652;28;2034;-71
2022/08/20 10:57:58;;;;;;;;;;;;;;;18.49;100.00;95776.09;10362756;28;2072;-70
2022/08/20 11:03:01;;;;;;;;;;;;;;;18.66;100.00;95772.53;10349623;28;2429;-72
2022/08/20 11:08:04;;;;;;;;;;;;;;;18.73;100.00;95772.88;10354519;28;2069;-73
2022/08/20 11:13:08;;;;;;;;;;;;;;;19.00;100.00;95768.13;10350346;28;2079;-72
2022/08/20 11:18:11;;;;;;;;;;;;;;;19.11;100.00;95767.44;10349249;28;1947;-73
2022/08/20 11:23:15;;;;;;;;;;;;;;;19.69;100.00;95744.00;10349817;28;2068;-74
2022/08/20 11:28:18;;;;;;;;;;;;;;;20.12;100.00;95744.78;10353063;28;1994;-77
2022/08/20 11:33:34;;;;;;;;;;;;;;;20.54;100.00;95736.50;10347597;28;1928;-72
2022/08/20 11:38:37;;;;;;;;;;;;;;;21.02;100.00;95733.84;10346688;28;2076;-73
2022/08/20 11:43:41;;;;;;;;;;;;;;;21.08;100.00;95736.38;10341943;28;2084;-73
2022/08/20 11:49:01;;;;;;;;;;;;;;;21.17;100.00;95737.03;10355037;28;2072;-71
2022/08/20 11:54:05;;;;;;;;;;;;;;;21.30;100.00;95733.19;10349446;28;1961;-71
2022/08/20 11:59:10;;;;;;;;;;;;;;;21.79;100.00;95744.84;10343012;28;2073;-72
2022/08/20 12:04:14;;;;;;;;;;;;;;;22.01;100.00;95749.03;10345583;28;1977;-74
2022/08/20 12:09:17;;;;;;;;;;;;;;;22.15;100.00;95745.91;10348274;28;1933;-71
2022/08/20 12:14:26;;;;;;;;;;;;;;;22.20;100.00;95736.63;10343776;28;2078;-69
2022/08/20 12:19:29;;;;;;;;;;;22.60;99.90;;;22.61;100.00;95747.16;10343446;28;1993;-68
2022/08/20 12:24:32;;;;;;;;;;;23.00;99.90;;;22.74;100.00;95744.34;10344576;28;2012;-68
2022/08/20 12:29:35;;;;;;;;;;;23.30;99.90;;;23.02;100.00;95745.09;10347638;28;2076;-70
2022/08/20 12:34:39;;;;;;;;;;;;;;;22.80;100.00;95731.97;10349093;28;2022;-68
2022/08/20 12:39:42;;;;;;;;;;;;;;;23.09;98.04;95722.53;10347217;28;2112;-69
2022/08/20 12:44:45;;;;;;;;;;;23.80;99.90;;;23.63;94.17;95719.13;10346363;28;2075;-70
2022/08/20 12:49:48;;;;;;;;;;;;;;;23.78;89.81;95721.00;10344944;28;2034;-70
2022/08/20 12:54:51;;;;;;;;;;;;;;;24.24;87.07;95716.47;10351571;28;2052;-78
2022/08/20 12:59:55;;;;;;;;;;;;;;;24.36;83.74;95712.78;10347815;28;1997;-75
2022/08/20 13:05:01;;;;;;;;;;;;;;;24.03;83.81;95713.28;10354629;28;1981;-71
2022/08/20 13:10:11;;;;;;;;;;;;;;;23.94;92.43;95719.00;10347547;28;2005;-69
2022/08/20 13:15:14;;;;;;;;;;;;;;;23.69;90.01;95723.97;10349136;28;2426;-71
2022/08/20 13:20:17;;;;;;;;;;;;;;;23.54;90.05;95708.31;10347076;28;2065;-70
2022/08/20 13:25:21;;;;;;;;;;;;;;;23.73;89.44;95708.38;10349245;28;2108;-70
2022/08/20 13:30:24;;;;;;;;;;;;;;;23.74;88.46;95711.91;10353108;28;2060;-70
2022/08/20 13:35:27;;;;;;;;;;;24.30;99.90;;;23.83;87.55;95700.72;10361531;28;2067;-70
2022/08/20 13:40:30;;;;;;;;;;;24.30;99.90;;;23.80;86.16;95690.47;10351424;28;2089;-71
2022/08/20 13:45:33;;;;;;;;;;;;;;;23.58;86.92;95689.19;10348715;28;2072;-70
2022/08/20 13:50:36;;;;;;;;;;;;;;;23.82;89.70;95682.66;10351452;28;2037;-70
2022/08/20 13:55:39;;;;;;;;;;;;;;;23.44;89.20;95678.69;10355267;28;1689;-69
2022/08/20 14:00:43;;;;;;;;;;;;;;;24.03;83.64;95677.59;10351760;28;1994;-70
2022/08/20 14:05:46;;;;;;;;;;;25.30;99.90;;;24.69;79.09;95671.00;10349521;28;1914;-71
2022/08/20 14:10:49;;;;;;;;;;;;;;;24.77;78.66;95672.72;10353819;28;1913;-71
2022/08/20 14:15:53;;;;;;;;;;;;;;;23.82;82.77;95669.72;10345584;28;1985;-71
2022/08/20 14:20:57;;;;;;;;;;;;;;;23.39;81.29;95673.47;10352268;28;1937;-71
2022/08/20 14:26:00;;;;;;;;;;;;;;;23.09;79.04;95679.47;10351042;28;2053;-72
2022/08/20 14:31:03;;;;;;;;;;;;;;;22.25;84.52;95696.13;10355160;28;2095;-73
2022/08/20 14:36:07;;;;;;;;;;;;;;;21.46;91.25;95709.47;10356068;28;2131;-75
2022/08/20 14:41:10;;;;;;;;;;;;;;;19.86;100.00;95710.34;10353804;28;2026;-72
2022/08/20 14:46:14;;;;;;;;;;;;;;;18.92;100.00;95719.94;10355601;28;2124;-72
2022/08/20 14:51:17;;;;;;;;;;;;;;;17.92;100.00;95718.41;10346107;28;2084;-72
2022/08/20 14:56:20;;;;;;;;;;;;;;;17.53;100.00;95758.19;10355881;28;2060;-71
2022/08/20 15:01:23;;;;;;;;;;;;;;;16.96;100.00;95782.66;10351901;28;2033;-72
2022/08/20 15:06:27;;;;;;;;;;;;;;;16.61;100.00;95814.25;10347911;28;2067;-71
2022/08/20 15:11:30;;;;;;;;;;;;;;;15.99;100.00;95839.34;10349628;28;2006;-74
2022/08/20 15:16:36;;;;;;;;;;;;;;;15.42;100.00;95822.66;10349427;28;2088;-69
2022/08/20 15:21:39;;;;;;;;;;;16.70;99.90;;;15.50;100.00;95824.66;10355114;28;1841;-71
2022/08/20 15:26:47;;;;;;;;;;;16.50;99.90;;;15.51;100.00;95826.25;10348209;28;2182;-70
2022/08/20 15:31:50;;;;;;;;;;;16.40;99.90;;;15.45;100.00;95818.53;10359417;28;2032;-70
2022/08/20 15:36:53;;;;;;;;;;;16.40;99.90;;;15.42;100.00;95817.25;10355288;28;2194;-70
2022/08/20 15:41:56;;;;;;;;;;;16.40;99.90;;;15.65;100.00;95816.25;10355407;28;2013;-70
2022/08/20 15:46:58;;;;;;;;;;;16.50;99.90;;;15.88;100.00;95805.44;10350186;28;2072;-71
2022/08/20 15:52:01;;;;;;;;;;;16.70;99.90;;;15.83;100.00;95797.41;10350563;28;2117;-69
2022/08/20 15:57:04;;;;;;;;;;;16.70;99.90;;;15.83;100.00;95795.50;10352437;28;1989;-72
2022/08/20 16:02:07;;;;;;;;;;;16.80;99.90;;;15.83;100.00;95797.41;10350340;28;1900;-72
2022/08/20 16:07:10;;;;;;;;;;;16.80;99.90;;;15.90;100.00;95797.78;10347463;28;2006;-73
2022/08/20 16:12:12;;;;;;;;;;;16.80;99.90;;;15.80;100.00;95798.03;10353077;28;2059;-74
2022/08/20 16:17:15;;;;;;;;;;;16.70;99.90;;;15.89;100.00;95788.84;10351329;28;2050;-73
2022/08/20 16:22:18;;;;;;;;;;;16.80;99.90;;;16.01;100.00;95796.44;10351781;28;2111;-73
2022/08/20 16:27:21;;;;;;;;;;;16.80;99.90;;;16.00;100.00;95802.97;10352103;28;2040;-73
2022/08/20 16:32:24;;;;;;;;;;;16.90;99.90;;;16.03;100.00;95802.38;10349279;28;2068;-74
2022/08/20 16:37:27;;;;;;;;;;;16.90;99.90;;;16.04;100.00;95808.59;10352161;28;2047;-72
2022/08/20 16:42:30;;;;;;;;;;;16.90;99.90;;;16.08;100.00;95809.56;10346521;28;2135;-72
2022/08/20 16:47:33;;;;;;;;;;;17.00;99.90;;;16.11;100.00;95817.91;10352274;28;2066;-72
2022/08/20 16:52:36;;;;;;;;;;;17.00;99.90;;;16.20;100.00;95821.47;10352649;28;2002;-71
2022/08/20 16:57:39;;;;;;;;;;;17.10;99.90;;;16.29;100.00;95816.13;10348999;28;2123;-71
2022/08/20 17:02:43;;;;;;;;;;;17.20;99.90;;;16.29;100.00;95818.84;10356833;28;1993;-72
2022/08/20 17:07:46;;;;;;;;;;;17.20;99.90;;;16.20;100.00;95826.91;10360777;28;2132;-73
2022/08/20 17:12:53;;;;;;;;;;;17.20;99.90;;;16.17;100.00;95832.97;10357641;28;2006;-73
2022/08/20 17:17:56;;;;;;;;;;;17.20;99.90;;;16.24;100.00;95842.56;10355458;28;2060;-73
2022/08/20 17:22:59;;;;;;;;;;;17.10;99.90;;;16.30;100.00;95835.91;10356789;28;2124;-71
2022/08/20 17:28:02;;;;;;;;;;;17.20;99.90;;;16.31;100.00;95841.03;10356376;28;2079;-72
2022/08/20 17:33:06;;;;;;;;;;;17.20;99.90;;;16.25;100.00;95838.75;10357950;28;2120;-73
2022/08/20 17:38:08;;;;;;;;;;;17.20;99.90;;;16.30;100.00;95835.91;10360695;28;1969;-74
2022/08/20 17:43:13;;;;;;;;;;;17.20;99.90;;;16.33;100.00;95835.28;10354010;28;2446;-71
2022/08/20 17:48:16;;;;;;;;;;;17.30;99.90;;;16.38;100.00;95832.47;10355503;28;2126;-73
2022/08/20 17:53:19;;;;;;;;;;;17.30;99.90;;;16.41;100.00;95843.50;10353323;28;2112;-73
2022/08/20 17:58:25;;;;;;;;;;;17.30;99.90;;;16.42;100.00;95847.81;10354508;28;2083;-74
2022/08/20 18:03:28;;;;;;;;;;;17.40;99.90;;;16.43;100.00;95843.19;10356396;28;2001;-72
2022/08/20 18:08:31;;;;;;;;;;;17.40;99.90;;;16.47;100.00;95841.44;10355798;28;2084;-74
2022/08/20 18:13:34;;;;;;;;;;;17.40;99.90;;;16.51;100.00;95838.94;10348670;28;2165;-72
2022/08/20 18:18:36;;;;;;;;;;;17.40;99.90;;;16.52;100.00;95838.63;10358175;28;2057;-72
2022/08/20 18:23:58;;;;;;;;;;;17.50;99.90;;;16.52;100.00;95835.91;10361935;28;1788;-72
2022/08/20 18:29:01;;;;;;;;;;;17.50;99.90;;;16.50;100.00;95848.97;10354940;28;2056;-73
2022/08/20 18:34:04;;;;;;;;;;;17.50;99.90;;;16.47;100.00;95852.28;10355206;28;1860;-72
2022/08/20 18:39:07;;;;;;;;;;;17.40;99.90;;;16.51;100.00;95844.34;10358104;28;2094;-72
2022/08/20 18:44:10;;;;;;;;;;;17.50;99.90;;;16.53;100.00;95851.06;10351885;28;2066;-72
2022/08/20 18:49:12;;;;;;;;;;;17.50;99.90;;;16.52;100.00;95854.91;10352785;28;1981;-71
2022/08/20 18:54:15;;;;;;;;;;;17.50;99.90;;;16.50;100.00;95851.69;10347921;28;2128;-72
2022/08/20 18:59:18;;;;;;;;;;;17.50;99.90;;;16.52;100.00;95856.81;10348162;28;2077;-71
2022/08/20 19:04:21;;;;;;;;;;;17.20;99.90;;;16.77;100.00;95861.63;10349725;28;2049;-68
2022/08/20 19:09:24;;;;;;;;;;;17.50;99.90;;;16.95;100.00;95870.69;10353566;28;2089;-69
2022/08/20 19:14:26;;;;;;;;;;;17.70;99.90;;;16.90;100.00;95868.09;10350381;28;2072;-68
2022/08/20 19:19:29;;;;;;;;;;;17.50;99.90;;;16.87;100.00;95876.88;10351497;28;2033;-69
2022/08/20 19:24:34;;;;;;;;;;;17.40;99.90;;;16.86;100.00;95875.25;10349717;28;2124;-77
2022/08/20 19:29:41;;;;;;;;;;;17.80;99.90;;;16.86;100.00;95869.81;10348234;28;2113;-74
2022/08/20 19:34:44;;;;;;;;;;;17.60;99.90;;;16.81;100.00;95861.81;10350546;28;2274;-68
2022/08/20 19:39:46;;;;;;;;;;;17.50;99.90;;;16.71;100.00;95869.09;10352368;28;2013;-71
2022/08/20 19:44:50;;;;;;;;;;;17.60;99.90;;;16.72;100.00;95862.56;10351789;28;2013;-69
2022/08/20 19:49:54;;;;;;;;;;;17.70;99.90;;;16.77;100.00;95855.41;10349144;28;2029;-67
2022/08/20 19:54:58;;;;;;;;;;;17.70;99.90;;;16.82;100.00;95858.00;10348748;28;2105;-68
2022/08/20 20:00:06;;;;;;;;;;;17.80;99.90;;;16.73;100.00;95856.03;10346613;28;2068;-68
2022/08/20 20:05:09;;;;;;;;;;;17.80;99.90;;;16.71;100.00;95850.09;10350966;28;1969;-67
2022/08/20 20:10:12;;;;;;;;;;;17.60;99.90;;;16.68;100.00;95842.56;10349415;28;2057;-68
2022/08/20 20:15:15;;;;;;;;;;;17.70;99.90;;;16.75;100.00;95847.56;10349797;28;2151;-69
2022/08/20 20:20:17;;;;;;;;;;;17.70;99.90;;;16.69;100.00;95833.28;10346586;28;2069;-68
2022/08/20 20:25:20;;;;;;;;;;;17.60;99.90;;;16.73;100.00;95839.75;10345395;28;2180;-68
2022/08/20 20:30:23;;;;;;;;;;;17.70;99.90;;;16.71;100.00;95835.72;10346985;28;2303;-68
2022/08/20 20:35:26;;;;;;;;;;;17.60;99.90;;;16.71;100.00;95836.53;10350468;28;2351;-67
2022/08/20 20:40:29;;;;;;;;;;;17.70;99.90;;;16.61;100.00;95831.34;10356539;28;1860;-67
2022/08/20 20:45:35;;;;;;;;;;;17.60;99.90;;;16.63;100.00;95834.53;10356215;28;2377;-66
2022/08/20 20:50:38;;;;;;;;;;;17.60;99.90;;;16.74;100.00;95835.91;10357807;28;2400;-67
2022/08/20 20:55:41;;;;;;;;;;;17.70;99.90;;;16.67;100.00;95835.53;10353236;28;2103;-67
2022/08/20 21:00:44;;;;;;;;;;;17.60;99.90;;;16.68;100.00;95833.63;10354641;28;2366;-67
2022/08/20 21:05:47;;;;;;;;;;;17.70;99.90;;;16.72;100.00;95831.91;10353823;28;2337;-68
2022/08/20 21:10:50;;;;;;;;;;;17.60;99.90;;;16.72;100.00;95824.53;10359660;28;2401;-68
2022/08/20 21:15:52;;;;;;;;;;;17.60;99.90;;;16.69;100.00;95822.44;10353431;28;2389;-68
2022/08/20 21:20:55;;;;;;;;;;;17.80;99.90;;;16.59;100.00;95830.84;10352421;28;1998;-68
2022/08/20 21:25:58;;;;;;;;;;;17.60;99.90;;;16.54;100.00;95824.72;10354002;28;2332;-67
2022/08/20 21:31:01;;;;;;;;;;;17.60;99.90;;;16.56;100.00;95828.75;10353894;28;2509;-67
2022/08/20 21:36:04;;;;;;;;;;;17.50;99.90;;;16.66;100.00;95833.09;10358055;28;2314;-68
2022/08/20 21:41:07;;;;;;;;;;;17.60;99.90;;;16.66;100.00;95838.53;10348197;28;2349;-69
2022/08/20 21:46:10;;;;;;;;;;;17.60;99.90;;;16.57;100.00;95838.50;10354865;28;2366;-68
2022/08/20 21:51:14;;;;;;;;;;;17.60;99.90;;;16.59;100.00;95828.13;10356621;28;2715;-67
2022/08/20 21:56:17;;;;;;;;;;;17.60;99.90;;;16.49;100.00;95828.41;10366680;28;2358;-68
2022/08/20 22:01:20;;;;;;;;;;;17.50;99.90;;;16.49;100.00;95829.19;10356062;28;2474;-67
2022/08/20 22:06:23;;;;;;;;;;;17.50;99.90;;;16.54;100.00;95830.16;10357513;28;2326;-74
2022/08/20 22:11:26;;;;;;;;;;;17.50;99.90;;;16.52;100.00;95824.25;10353961;28;2334;-71
2022/08/20 22:16:29;;;;;;;;;;;17.50;99.90;;;16.53;100.00;95821.22;10350443;28;2355;-66
2022/08/20 22:21:32;;;;;;;;;;;17.50;99.90;;;16.55;100.00;95821.72;10356172;28;2346;-66
2022/08/20 22:26:35;;;;;;;;;;;17.50;99.90;;;16.54;100.00;95820.13;10360130;28;2476;-67
2022/08/20 22:31:38;;;;;;;;;;;17.50;99.90;;;16.55;100.00;95815.50;10349322;28;2350;-72
2022/08/20 22:36:41;;;;;;;;;;;17.50;99.90;;;16.56;100.00;95817.91;10361190;28;2341;-75
2022/08/20 22:41:43;;;;;;;;;;;17.50;99.90;;;16.53;100.00;95810.34;10352734;28;2302;-76
2022/08/20 22:46:46;;;;;;;;;;;17.50;99.90;;;16.55;100.00;95810.88;10355561;28;2287;-66
2022/08/20 22:51:55;;;;;;;;;;;17.50;99.90;;;16.55;100.00;95813.59;10352013;28;2347;-68
2022/08/20 22:56:58;;;;;;;;;;;17.50;99.90;;;16.56;100.00;95807.03;10351396;28;2299;-67
2022/08/20 23:02:01;;;;;;;;;;;17.50;99.90;;;16.58;100.00;95807.53;10349075;28;2474;-67
2022/08/20 23:07:10;;;;;;;;;;;17.50;99.90;;;16.46;100.00;95810.81;10357016;28;2360;-67
2022/08/20 23:12:14;;;;;;;;;;;17.50;99.90;;;16.40;100.00;95809.31;10350656;28;2262;-68
2022/08/20 23:17:17;;;;;;;;;;;17.40;99.90;;;16.41;100.00;95805.53;10352350;28;2263;-69
2022/08/20 23:22:21;;;;;;;;;;;17.50;99.90;;;16.42;100.00;95800.91;10352656;28;1967;-68
2022/08/20 23:27:25;;;;;;;;;;;17.40;99.90;;;16.28;100.00;95797.44;10354305;28;1984;-67
2022/08/20 23:32:28;;;;;;;;;;;17.30;99.90;;;16.27;100.00;95788.50;10348335;28;2538;-67
2022/08/20 23:37:30;;;;;;;;;;;17.30;99.90;;;16.21;100.00;95785.09;10353239;28;2455;-67
2022/08/20 23:42:33;;;;;;;;;;;17.20;99.90;;;16.12;100.00;95792.41;10339167;28;2429;-68
2022/08/20 23:47:36;;;;;;;;;;;17.30;99.90;;;16.08;100.00;95791.41;10353585;28;2345;-67
2022/08/20 23:52:39;;;;;;;;;;;17.20;99.90;;;16.03;100.00;95786.13;10350229;28;2353;-66
2022/08/20 23:57:41;;;;;;;;;;;17.10;99.90;;;15.92;100.00;95773.91;10346895;28;2353;-68
